Time;durP1;ratioP1;P1;durP2;ratioP2;P2;SDS_P1;SDS_P2;PMS_P1;PMS_P2;Temp;Humidity;BMP_temperature;BMP_pressure;BME280_temperature;BME280_humidity;BME280_pressure;Samples;Min_cycle;Max_cycle;Signal;HPM_P1;HPM_P2
2023/07/22 00:00:39;;;;;;;6.20;2.50;;;;;;;22.71;91.44;100674.31;106668;1282;61418;-89
2023/07/22 00:03:27;;;;;;;3.80;2.20;;;;;;;22.70;91.61;100670.00;106591;1282;75574;-90
2023/07/22 00:06:15;;;;;;;2.80;2.30;;;;;;;22.72;91.41;100667.84;106534;1282;69785;-92
2023/07/22 00:09:04;;;;;;;3.90;2.10;;;;;;;22.58;92.48;100659.23;106446;1282;71359;-92
2023/07/22 00:11:52;;;;;;;3.70;2.50;;;;;;;22.54;93.16;100651.17;106550;1282;61973;-91
2023/07/22 00:14:42;;;;;;;3.10;2.10;;;;;;;22.69;91.38;100649.30;106522;1282;60465;-91
2023/07/22 00:17:30;;;;;;;4.10;2.30;;;;;;;22.67;90.27;100656.50;106676;1281;76781;-89
2023/07/22 00:20:19;;;;;;;4.00;2.30;;;;;;;22.54;90.22;100655.10;106689;1282;69218;-91
2023/07/22 00:23:08;;;;;;;5.70;2.50;;;;;;;22.49;90.28;100650.88;106528;1282;72697;-89
2023/07/22 00:25:56;;;;;;;4.80;2.10;;;;;;;22.49;90.29;100639.59;106539;1282;63158;-90
2023/07/22 00:28:44;;;;;;;3.90;2.50;;;;;;;22.50;90.56;100635.48;106274;1282;59965;-90
2023/07/22 00:31:33;;;;;;;3.80;2.60;;;;;;;22.52;90.69;100634.90;106645;1282;74425;-91
2023/07/22 00:34:23;;;;;;;3.70;2.00;;;;;;;22.54;90.49;100636.55;106717;1281;68736;-91
2023/07/22 00:37:10;;;;;;;3.70;2.30;;;;;;;22.40;91.16;100631.30;106658;1281;71591;-92
2023/07/22 00:40:43;;;;;;;3.00;2.20;;;;;;;22.32;91.65;100635.15;106471;1282;60366;-91
2023/07/22 00:44:16;;;;;;;4.40;2.30;;;;;;;22.29;92.23;100644.27;106610;1282;61749;-91
2023/07/22 00:47:48;;;;;;;3.40;2.30;;;;;;;22.29;92.06;100641.13;106634;1282;74526;-90
2023/07/22 00:51:22;;;;;;;4.20;2.40;;;;;;;22.21;93.02;100644.50;106588;1282;68529;-90
2023/07/22 00:54:54;;;;;;;5.80;2.20;;;;;;;22.04;94.82;100648.52;106549;1282;72768;-92
2023/07/22 00:58:27;;;;;;;2.20;2.00;;;;;;;22.05;95.14;100647.21;106426;1282;60658;-90
2023/07/22 01:01:59;;;;;;;4.90;2.60;;;;;;;22.07;95.36;100649.95;106643;1281;61995;-91
2023/07/22 01:05:31;;;;;;;5.50;2.30;;;;;;;22.11;95.04;100648.25;106676;1282;75247;-89
2023/07/22 01:09:03;;;;;;;8.20;2.20;;;;;;;22.08;95.01;100646.59;106659;1282;69828;-91
2023/07/22 01:12:35;;;;;;;5.10;2.50;;;;;;;22.22;94.06;100642.98;106517;1282;73905;-91
2023/07/22 01:16:07;;;;;;;4.70;2.10;;;;;;;22.31;92.43;100644.52;106400;1281;61769;-91
2023/07/22 01:19:38;;;;;;;1.40;1.40;;;;;;;22.26;91.06;100654.70;106501;1282;59905;-91
2023/07/22 02:42:28;;;;;;;2.90;2.50;;;;;;;21.82;91.70;100659.87;106675;1282;76189;-89
2023/07/22 02:45:17;;;;;;;3.60;2.50;;;;;;;21.95;91.90;100667.89;106463;1283;69721;-91
2023/07/22 02:48:05;;;;;;;4.50;2.70;;;;;;;21.95;93.25;100669.23;106643;1282;71435;-91
2023/07/22 02:50:53;;;;;;;5.50;3.00;;;;;;;21.96;94.60;100672.92;106621;1282;60812;-89
2023/07/22 02:53:41;;;;;;;4.70;2.80;;;;;;;22.26;93.05;100668.67;106662;1281;60288;-88
2023/07/22 02:56:29;;;;;;;4.10;2.80;;;;;;;22.30;92.64;100663.88;106667;1282;77661;-88
2023/07/22 02:59:18;;;;;;;3.70;2.60;;;;;;;22.29;94.22;100661.69;106508;1282;68200;-91
2023/07/22 03:02:05;;;;;;;4.40;3.10;;;;;;;22.40;96.29;100658.42;106475;1282;72657;-90
2023/07/22 03:04:53;;;;;;;5.10;3.00;;;;;;;22.66;97.16;100649.52;106476;1282;62491;-91
2023/07/22 03:07:42;;;;;;;4.30;3.20;;;;;;;22.84;97.94;100652.21;106447;1282;60335;-90
2023/07/22 03:10:31;;;;;;;3.60;3.00;;;;;;;23.05;98.07;100651.60;106564;1282;76498;-90
2023/07/22 03:13:20;;;;;;;2.60;2.40;;;;;;;23.22;97.64;100646.30;106718;1282;69515;-89
2023/07/22 03:16:08;;;;;;;2.60;2.40;;;;;;;23.39;97.97;100651.89;106656;1282;73203;-88
2023/07/22 03:18:56;;;;;;;3.30;3.00;;;;;;;23.51;98.21;100652.50;106406;1287;61631;-88
2023/07/22 03:21:44;;;;;;;5.10;2.90;;;;;;;23.60;96.85;100658.45;106459;1282;61084;-88
2023/07/22 03:24:32;;;;;;;6.10;2.70;;;;;;;23.59;95.89;100659.30;106668;1282;76397;-92
2023/07/22 03:27:21;;;;;;;4.00;2.50;;;;;;;23.59;96.07;100662.65;106495;1282;68710;-88
2023/07/22 03:30:11;;;;;;;4.60;2.60;;;;;;;23.60;96.51;100665.05;106567;1282;73835;-91
2023/07/22 03:33:00;;;;;;;5.40;3.00;;;;;;;23.60;96.08;100664.02;106729;1282;60805;-90
2023/07/22 03:35:48;;;;;;;4.20;2.40;;;;;;;23.62;95.36;100665.49;106340;1282;60735;-91
2023/07/22 03:38:36;;;;;;;3.70;3.00;;;;;;;23.70;95.62;100663.45;106554;1281;74689;-91
2023/07/22 03:41:24;;;;;;;4.30;2.70;;;;;;;23.83;95.91;100657.46;106650;1282;69470;-90
2023/07/22 03:44:13;;;;;;;2.40;2.20;;;;;;;23.96;96.75;100652.02;106673;1282;72768;-89
2023/07/22 03:47:01;;;;;;;3.90;2.70;;;;;;;24.12;96.78;100643.75;106536;1282;61869;-88
2023/07/22 03:49:49;;;;;;;4.20;3.10;;;;;;;24.26;96.82;100645.55;106595;1282;61298;-89
2023/07/22 03:52:37;;;;;;;8.20;3.00;;;;;;;24.36;96.92;100647.36;106730;1282;75329;-88
2023/07/22 03:55:25;;;;;;;4.00;2.50;;;;;;;24.49;96.64;100651.38;106535;1282;70228;-91
2023/07/22 03:58:13;;;;;;;3.50;3.00;;;;;;;24.60;96.43;100654.62;106480;1282;73173;-90
2023/07/22 04:01:03;;;;;;;4.00;3.00;;;;;;;24.72;97.34;100656.70;106670;1282;60809;-89
2023/07/22 04:03:51;;;;;;;4.30;2.90;;;;;;;24.91;97.89;100652.16;106672;1282;60342;-89
2023/07/22 04:06:39;;;;;;;6.90;2.90;;;;;;;25.07;98.36;100650.77;106492;1281;75730;-91
2023/07/22 04:09:28;;;;;;;6.40;3.60;;;;;;;25.21;99.96;100649.45;106582;1282;68692;-92
2023/07/22 04:12:17;;;;;;;3.90;3.10;;;;;;;25.34;100.00;100649.33;106550;1282;64770;-91
2023/07/22 04:15:09;;;;;;;5.70;3.20;;;;;;;25.62;100.00;100643.35;106643;1282;61053;-89
2023/07/22 04:17:56;;;;;;;3.60;2.70;;;;;;;25.91;100.00;100636.19;106650;1282;60546;-89
2023/07/22 04:20:45;;;;;;;4.40;3.50;;;;;;;26.19;99.98;100629.26;106556;1282;67872;-89
2023/07/22 04:23:33;;;;;;;3.30;2.90;;;;;;;26.37;99.91;100629.16;106481;1282;277277;-89
2023/07/22 04:26:21;;;;;;;5.20;3.70;;;;;;;26.52;99.87;100632.23;106611;1282;65295;-92
2023/07/22 04:29:11;;;;;;;6.60;3.50;;;;;;;26.65;98.94;100635.81;106481;1282;60106;-92
2023/07/22 04:32:00;;;;;;;4.60;3.30;;;;;;;26.79;96.55;100634.02;106644;1282;60356;-89
2023/07/22 04:34:48;;;;;;;3.60;3.30;;;;;;;26.92;94.83;100630.31;106244;1282;65484;-88
2023/07/22 04:37:36;;;;;;;7.40;3.70;;;;;;;27.04;93.50;100635.06;106471;1282;60884;-88
2023/07/22 04:40:24;;;;;;;4.90;3.60;;;;;;;27.09;92.77;100633.73;106709;1282;62872;-92
2023/07/22 04:43:12;;;;;;;7.10;3.90;;;;;;;27.13;92.37;100630.48;106667;1282;59898;-90
2023/07/22 04:46:01;;;;;;;5.50;3.80;;;;;;;27.14;92.19;100634.59;106550;1282;60582;-88
2023/07/22 04:48:48;;;;;;;4.70;4.00;;;;;;;27.24;91.71;100636.94;106569;1282;65825;-89
2023/07/22 04:51:36;;;;;;;4.20;3.80;;;;;;;27.35;91.30;100642.72;106455;1282;60183;-89
2023/07/22 04:54:28;;;;;;;6.70;3.90;;;;;;;27.49;90.26;100647.23;106438;1282;63730;-89
2023/07/22 04:57:17;;;;;;;7.40;4.50;;;;;;;27.58;90.37;100647.20;106473;1282;60144;-88
2023/07/22 05:00:16;;;;;;;6.10;4.20;;;;;;;27.62;90.68;100647.71;106617;1282;60426;-88
2023/07/22 05:03:04;;;;;;;5.30;4.40;;;;;;;27.65;90.38;100644.60;106455;1282;66816;-92
2023/07/22 05:05:53;;;;;;;7.00;4.30;;;;;;;27.68;90.09;100638.67;106678;1282;61165;-92
2023/07/22 05:08:42;;;;;;;6.20;3.90;;;;;;;27.69;90.02;100635.00;106684;1282;64595;-87
2023/07/22 05:11:30;;;;;;;6.40;4.30;;;;;;;27.69;90.46;100641.66;106645;1282;60019;-88
2023/07/22 05:14:18;;;;;;;5.60;4.20;;;;;;;27.72;90.81;100644.80;106713;1282;59821;-88
2023/07/22 05:17:07;;;;;;;5.70;3.80;;;;;;;27.72;92.20;100640.80;106617;1282;67588;-89
2023/07/22 05:19:55;;;;;;;6.70;4.00;;;;;;;27.73;93.67;100636.23;106678;1281;61453;-88
2023/07/22 05:22:43;;;;;;;4.60;3.70;;;;;;;27.86;93.32;100634.55;106707;1281;64097;-91
2023/07/22 05:25:31;;;;;;;4.60;3.60;;;;;;;28.00;92.90;100633.92;106432;1282;61520;-91
2023/07/22 05:28:19;;;;;;;6.60;3.60;;;;;;;28.14;92.48;100633.08;106678;1282;59947;-92
2023/07/22 05:31:09;;;;;;;4.90;3.40;;;;;;;28.28;91.99;100627.03;106652;1282;69448;-91
2023/07/22 05:33:58;;;;;;;8.10;3.80;;;;;;;28.38;91.60;100625.23;106685;1282;60943;-89
2023/07/22 05:36:46;;;;;;;3.40;3.10;;;;;;;28.52;90.96;100627.14;106725;1282;65529;-92
2023/07/22 05:39:34;;;;;;;4.70;3.20;;;;;;;28.71;89.87;100626.69;106589;1282;60032;-88
2023/07/22 05:42:22;;;;;;;4.90;3.40;;;;;;;28.85;88.79;100628.16;106649;1282;60249;-89
2023/07/22 05:45:15;;;;;;;6.70;3.60;;;;;;;29.01;86.87;100632.84;106724;1282;66599;-93
2023/07/22 05:48:03;;;;;;;;;;;;;;;29.14;85.84;100630.93;106523;1281;60960;-92
2023/07/22 05:50:51;;;;;;;5.60;3.00;;;;;;;29.17;85.53;100631.89;106634;1282;62717;-89
2023/07/22 05:53:40;;;;;;;5.30;3.20;;;;;;;29.22;84.94;100628.20;106532;1282;60021;-87
2023/07/22 05:56:27;;;;;;;5.40;3.10;;;;;;;29.43;82.57;100625.11;106469;1282;59938;-87
2023/07/22 05:59:16;;;;;;;6.40;3.20;;;;;;;29.63;80.99;100623.73;106434;1282;66674;-91
2023/07/22 06:02:11;;;;;;;5.30;3.40;;;;;;;29.85;80.80;100625.36;106316;1282;60154;-90
2023/07/22 06:05:01;;;;;;;3.80;2.90;;;;;;;30.10;79.68;100627.05;106528;1282;65275;-92
2023/07/22 06:07:50;;;;;;;5.40;3.30;;;;;;;30.21;78.43;100633.59;106712;1282;60554;-86
2023/07/22 06:10:42;;;;;;;5.00;3.00;;;;;;;30.27;76.49;100631.58;106673;1282;60462;-87
2023/07/22 06:13:30;;;;;;;4.00;3.00;;;;;;;30.32;75.21;100632.60;106645;1282;67930;-91
2023/07/22 06:16:18;;;;;;;2.90;2.50;;;;;;;30.27;76.26;100632.30;106618;1282;61266;-87
2023/07/22 06:19:06;;;;;;;2.70;2.30;;;;;;;30.29;75.87;100630.60;106473;1282;64146;-91
2023/07/22 06:21:54;;;;;;;2.20;2.00;;;;;;;30.31;74.80;100627.05;106524;1282;60026;-87
2023/07/22 06:24:43;;;;;;;4.60;2.30;;;;;;;30.33;72.59;100632.11;106700;1281;59849;-91
2023/07/22 06:27:31;;;;;;;3.00;2.20;;;;;;;30.33;70.52;100636.39;106461;1282;66708;-87
2023/07/22 06:30:19;;;;;;;3.00;2.40;;;;;;;30.40;68.95;100638.84;106601;1282;60424;-91
2023/07/22 06:33:07;;;;;;;3.20;2.50;;;;;;;30.46;69.11;100646.55;106317;1282;64129;-90
2023/07/22 06:35:55;;;;;;;5.70;2.60;;;;;;;30.50;71.07;100651.99;106580;1282;60326;-88
2023/07/22 06:38:43;;;;;;;7.70;2.40;;;;;;;30.52;74.22;100656.02;106414;1282;60052;-91
2023/07/22 06:41:32;;;;;;;7.00;2.20;;;;;;;30.54;75.84;100655.84;106692;1282;67717;-87
2023/07/22 06:44:20;;;;;;;2.60;2.40;;;;;;;30.52;77.25;100662.69;106676;1282;60949;-89
2023/07/22 06:47:08;;;;;;;4.90;2.60;;;;;;;30.37;79.03;100662.05;106610;1282;62853;-92
2023/07/22 06:49:56;;;;;;;5.70;2.70;;;;;;;30.34;78.23;100663.99;106484;1282;59982;-87
2023/07/22 06:52:43;;;;;;;2.70;2.50;;;;;;;30.24;76.80;100670.32;106671;1282;60435;-90
2023/07/22 06:55:35;;;;;;;2.80;2.60;;;;;;;30.11;75.46;100672.04;106664;1282;67929;-87
2023/07/22 06:58:23;;;;;;;2.70;2.20;;;;;;;29.97;75.04;100679.09;106688;1282;60115;-86
2023/07/22 07:01:11;;;;;;;5.20;2.50;;;;;;;29.86;75.07;100680.65;106598;1282;64735;-90
2023/07/22 07:04:01;;;;;;;2.70;2.40;;;;;;;29.79;75.59;100685.25;106661;1282;60417;-89
2023/07/22 07:06:51;;;;;;;3.10;2.40;;;;;;;29.74;75.98;100683.41;106632;1282;60250;-90
2023/07/22 07:09:40;;;;;;;3.50;3.20;;;;;;;29.67;76.72;100688.39;106628;1286;66921;-92
2023/07/22 07:12:28;;;;;;;4.40;2.70;;;;;;;29.61;76.52;100686.86;106662;1282;61246;-91
2023/07/22 07:15:16;;;;;;;5.60;3.20;;;;;;;29.58;76.96;100687.66;106699;1282;62980;-91
2023/07/22 07:18:05;;;;;;;3.10;2.80;;;;;;;29.59;76.56;100690.33;106676;1282;60076;-89
2023/07/22 07:20:53;;;;;;;4.90;3.00;;;;;;;29.48;76.58;100689.54;106502;1282;61134;-88
2023/07/22 07:23:41;;;;;;;3.50;2.80;;;;;;;29.42;76.29;100686.96;106657;1282;67932;-90
2023/07/22 07:26:29;;;;;;;3.70;3.00;;;;;;;29.35;77.75;100687.45;106505;1282;61300;-90
2023/07/22 07:29:17;;;;;;;5.30;3.40;;;;;;;29.27;79.67;100694.84;106379;1282;64031;-90
2023/07/22 07:32:25;;;;;;;4.60;3.50;;;;;;;29.05;82.86;100700.83;106695;1282;60124;-89
2023/07/22 07:35:13;;;;;;;5.60;3.50;;;;;;;28.88;85.97;100700.00;106240;1282;60683;-89
2023/07/22 07:38:01;;;;;;;3.90;3.00;;;;;;;28.75;88.36;100694.81;106632;1282;66934;-89
2023/07/22 07:41:00;;;;;;;9.70;3.60;;;;;;;28.63;90.75;100697.91;106446;1282;61258;-89
2023/07/22 07:43:48;;;;;;;4.70;3.40;;;;;;;28.50;92.99;100694.11;106562;1282;65011;-89
2023/07/22 07:46:36;;;;;;;4.60;3.20;;;;;;;28.42;95.23;100692.53;106700;1282;60439;-90
2023/07/22 07:49:24;;;;;;;5.00;4.00;;;;;;;28.38;96.77;100684.80;106569;1282;60145;-90
2023/07/22 07:52:12;;;;;;;6.30;4.30;;;;;;;28.29;98.63;100679.14;106587;1282;68405;-89
2023/07/22 07:55:00;;;;;;;7.00;5.60;;;;;;;28.18;99.88;100672.76;106498;1282;59953;-88
2023/07/22 07:57:48;;;;;;;5.50;4.70;;;;;;;28.11;100.00;100671.59;106579;1282;65132;-89
2023/07/22 08:00:37;;;;;;;6.00;4.80;;;;;;;28.03;100.00;100667.71;106605;1282;60292;-89
2023/07/22 08:03:25;;;;;;;6.50;4.10;;;;;;;28.01;100.00;100665.61;106603;1282;59952;-89
2023/07/22 08:06:13;;;;;;;5.10;4.20;;;;;;;28.09;100.00;100668.30;106512;1284;66717;-88
2023/07/22 08:09:06;;;;;;;7.80;4.80;;;;;;;28.17;100.00;100665.77;106509;1282;61198;-90
2023/07/22 08:11:54;;;;;;;7.30;5.00;;;;;;;28.16;100.00;100661.34;106458;1282;64945;-88
2023/07/22 08:14:42;;;;;;;4.20;3.50;;;;;;;28.33;100.00;100662.46;106603;1282;59967;-87
2023/07/22 08:17:31;;;;;;;4.90;3.60;;;;;;;28.60;100.00;100659.99;106658;1282;60176;-89
2023/07/22 08:20:21;;;;;;;4.00;3.60;;;;;;;28.62;100.00;100657.52;106479;1283;66792;-90
2023/07/22 08:23:09;;;;;;;4.40;3.70;;;;;;;28.67;100.00;100658.81;106728;1282;59942;-89
2023/07/22 08:25:59;;;;;;;4.50;3.50;;;;;;;28.58;100.00;100660.39;106587;1282;65269;-90
2023/07/22 08:28:47;;;;;;;5.60;3.60;;;;;;;28.46;100.00;100659.95;106592;1282;61694;-89
2023/07/22 08:31:36;;;;;;;4.30;3.90;;;;;;;28.56;100.00;100657.44;106501;1282;60810;-90
2023/07/22 08:34:24;;;;;;;5.10;3.70;;;;;;;28.53;100.00;100656.37;106512;1282;66561;-89
2023/07/22 08:37:12;;;;;;;4.40;3.80;;;;;;;28.45;100.00;100647.34;106629;1282;61262;-89
2023/07/22 08:40:01;;;;;;;5.90;3.90;;;;;;;28.43;100.00;100640.27;106620;1283;65133;-89
2023/07/22 08:42:50;;;;;;;6.50;4.00;;;;;;;28.52;100.00;100631.48;106573;1282;63593;-88
2023/07/22 08:45:40;;;;;;;5.60;4.20;;;;;;;28.52;100.00;100628.66;106518;1282;59962;-87
2023/07/22 08:48:34;;;;;;;7.50;3.80;;;;;;;28.54;100.00;100628.51;106383;1282;67887;-89
2023/07/22 08:51:23;;;;;;;4.80;3.90;;;;;;;28.34;100.00;100624.02;106561;1282;60653;-88
2023/07/22 08:54:10;;;;;;;5.30;3.90;;;;;;;28.26;100.00;100619.73;106413;1282;62873;-88
2023/07/22 08:57:00;;;;;;;7.00;4.00;;;;;;;28.24;100.00;100626.06;106461;1282;59950;-90
2023/07/22 08:59:52;;;;;;;5.30;3.60;;;;;;;28.24;100.00;100618.52;106492;1282;59892;-89
2023/07/22 09:02:43;;;;;;;6.00;3.60;;;;;;;28.22;100.00;100614.17;106684;1282;66823;-88
2023/07/22 09:05:40;;;;;;;4.30;3.60;;;;;;;28.25;100.00;100609.45;106539;1282;61186;-88
2023/07/22 09:08:30;;;;;;;5.90;3.70;;;;;;;28.27;100.00;100601.27;106431;1282;64078;-89
2023/07/22 09:11:19;;;;;;;4.60;3.70;;;;;;;28.20;100.00;100590.89;106498;1282;60019;-88
2023/07/22 09:14:07;;;;;;;6.00;3.50;;;;;;;28.30;100.00;100577.20;106403;1286;61130;-88
2023/07/22 09:16:55;;;;;;;6.00;3.80;;;;;;;28.48;100.00;100574.45;106620;1282;75199;-87
2023/07/22 09:19:44;;;;;;;5.50;4.00;;;;;;;28.53;100.00;100572.77;106651;1282;60791;-88
2023/07/22 09:22:33;;;;;;;5.00;3.90;;;;;;;28.52;100.00;100571.41;106423;1282;62982;-88
2023/07/22 09:25:22;;;;;;;6.90;4.20;;;;;;;28.47;100.00;100586.01;106457;1282;60571;-87
2023/07/22 09:28:11;;;;;;;4.30;3.70;;;;;;;28.53;100.00;100601.04;106616;1282;60219;-89
2023/07/22 09:31:03;;;;;;;5.30;4.10;;;;;;;28.53;100.00;100594.70;106599;1282;68130;-89
2023/07/22 09:33:54;;;;;;;4.60;3.80;;;;;;;28.61;100.00;100590.69;106491;1282;60280;-90
2023/07/22 09:36:52;;;;;;;7.10;3.80;;;;;;;28.69;100.00;100603.40;106614;1282;65161;-88
